sensor_id;sensor_type;location;lat;lon;timestamp;temperature;humidity
975;DHT22;6115;49.296;10.602;2023-12-29T00:01:18;8.80;69.10
975;DHT22;6115;49.296;10.602;2023-12-29T00:06:19;8.80;69.00
975;DHT22;6115;49.296;10.602;2023-12-29T00:11:20;8.70;68.90
975;DHT22;6115;49.296;10.602;2023-12-29T00:16:20;8.70;68.90
975;DHT22;6115;49.296;10.602;2023-12-29T00:21:21;8.60;68.90
975;DHT22;6115;49.296;10.602;2023-12-29T00:26:22;8.60;68.90
975;DHT22;6115;49.296;10.602;2023-12-29T00:31:22;8.70;69.30
975;DHT22;6115;49.296;10.602;2023-12-29T00:36:23;8.80;69.00
975;DHT22;6115;49.296;10.602;2023-12-29T00:41:24;8.90;69.10
975;DHT22;6115;49.296;10.602;2023-12-29T00:46:25;8.90;68.90
975;DHT22;6115;49.296;10.602;2023-12-29T00:51:25;9.00;68.50
975;DHT22;6115;49.296;10.602;2023-12-29T00:56:26;9.00;68.00
975;DHT22;6115;49.296;10.602;2023-12-29T01:01:26;9.10;67.70
975;DHT22;6115;49.296;10.602;2023-12-29T01:06:27;9.20;67.30
975;DHT22;6115;49.296;10.602;2023-12-29T01:11:28;9.20;66.90
975;DHT22;6115;49.296;10.602;2023-12-29T01:16:28;9.10;66.80
975;DHT22;6115;49.296;10.602;2023-12-29T01:21:29;9.00;66.80
975;DHT22;6115;49.296;10.602;2023-12-29T01:26:37;8.90;66.90
975;DHT22;6115;49.296;10.602;2023-12-29T01:31:39;8.90;67.40
975;DHT22;6115;49.296;10.602;2023-12-29T01:36:40;8.80;67.60
975;DHT22;6115;49.296;10.602;2023-12-29T01:41:40;8.70;67.80
975;DHT22;6115;49.296;10.602;2023-12-29T01:46:41;8.80;68.30
975;DHT22;6115;49.296;10.602;2023-12-29T01:51:42;8.90;68.40
975;DHT22;6115;49.296;10.602;2023-12-29T01:56:44;9.00;67.90
975;DHT22;6115;49.296;10.602;2023-12-29T02:01:45;9.10;67.60
975;DHT22;6115;49.296;10.602;2023-12-29T02:06:46;9.20;67.40
975;DHT22;6115;49.296;10.602;2023-12-29T02:11:47;9.20;66.90
975;DHT22;6115;49.296;10.602;2023-12-29T02:22:08;9.40;66.30
975;DHT22;6115;49.296;10.602;2023-12-29T02:32:18;9.40;66.20
975;DHT22;6115;49.296;10.602;2023-12-29T02:37:21;9.40;66.80
975;DHT22;6115;49.296;10.602;2023-12-29T02:42:22;9.30;67.50
975;DHT22;6115;49.296;10.602;2023-12-29T02:47:22;9.10;68.50
975;DHT22;6115;49.296;10.602;2023-12-29T02:52:32;9.20;69.10
975;DHT22;6115;49.296;10.602;2023-12-29T02:57:32;9.20;68.90
975;DHT22;6115;49.296;10.602;2023-12-29T03:02:33;9.20;68.80
975;DHT22;6115;49.296;10.602;2023-12-29T03:07:34;9.30;68.20
975;DHT22;6115;49.296;10.602;2023-12-29T03:12:35;9.30;67.90
975;DHT22;6115;49.296;10.602;2023-12-29T03:17:36;9.30;67.50
975;DHT22;6115;49.296;10.602;2023-12-29T03:22:36;9.40;67.20
975;DHT22;6115;49.296;10.602;2023-12-29T03:27:37;9.40;66.70
975;DHT22;6115;49.296;10.602;2023-12-29T03:32:37;9.40;66.50
975;DHT22;6115;49.296;10.602;2023-12-29T03:37:38;9.40;66.10
975;DHT22;6115;49.296;10.602;2023-12-29T03:42:39;9.50;65.90
975;DHT22;6115;49.296;10.602;2023-12-29T03:47:40;9.50;65.80
975;DHT22;6115;49.296;10.602;2023-12-29T03:52:40;9.40;65.10
975;DHT22;6115;49.296;10.602;2023-12-29T03:57:42;9.40;65.30
975;DHT22;6115;49.296;10.602;2023-12-29T04:02:43;9.40;65.20
975;DHT22;6115;49.296;10.602;2023-12-29T04:07:44;9.40;64.70
975;DHT22;6115;49.296;10.602;2023-12-29T04:12:44;9.40;65.10
975;DHT22;6115;49.296;10.602;2023-12-29T04:17:45;9.40;64.70
975;DHT22;6115;49.296;10.602;2023-12-29T04:22:46;9.40;64.90
975;DHT22;6115;49.296;10.602;2023-12-29T04:27:47;9.40;64.70
975;DHT22;6115;49.296;10.602;2023-12-29T04:32:47;9.50;64.80
975;DHT22;6115;49.296;10.602;2023-12-29T04:37:48;9.40;64.70
975;DHT22;6115;49.296;10.602;2023-12-29T04:42:49;9.50;64.80
975;DHT22;6115;49.296;10.602;2023-12-29T04:47:50;9.40;65.40
975;DHT22;6115;49.296;10.602;2023-12-29T04:52:50;9.40;65.50
975;DHT22;6115;49.296;10.602;2023-12-29T04:57:51;9.40;65.50
975;DHT22;6115;49.296;10.602;2023-12-29T05:02:51;9.40;65.50
975;DHT22;6115;49.296;10.602;2023-12-29T05:07:52;9.40;65.50
975;DHT22;6115;49.296;10.602;2023-12-29T05:12:52;9.40;65.90
975;DHT22;6115;49.296;10.602;2023-12-29T05:17:53;9.30;66.00
975;DHT22;6115;49.296;10.602;2023-12-29T05:22:53;9.30;66.00
975;DHT22;6115;49.296;10.602;2023-12-29T05:27:54;9.40;66.10
975;DHT22;6115;49.296;10.602;2023-12-29T05:32:55;9.30;66.30
975;DHT22;6115;49.296;10.602;2023-12-29T05:37:56;9.20;66.60
975;DHT22;6115;49.296;10.602;2023-12-29T05:42:56;9.10;66.90
975;DHT22;6115;49.296;10.602;2023-12-29T05:47:57;9.00;67.20
975;DHT22;6115;49.296;10.602;2023-12-29T05:52:57;9.00;67.20
975;DHT22;6115;49.296;10.602;2023-12-29T05:57:58;9.10;67.10
975;DHT22;6115;49.296;10.602;2023-12-29T06:02:58;9.10;66.80
975;DHT22;6115;49.296;10.602;2023-12-29T06:07:59;9.20;66.20
975;DHT22;6115;49.296;10.602;2023-12-29T06:13:01;9.30;65.40
975;DHT22;6115;49.296;10.602;2023-12-29T06:18:03;9.30;64.60
975;DHT22;6115;49.296;10.602;2023-12-29T06:23:04;9.30;64.60
975;DHT22;6115;49.296;10.602;2023-12-29T06:28:05;9.30;65.80
975;DHT22;6115;49.296;10.602;2023-12-29T06:33:06;9.20;67.40
975;DHT22;6115;49.296;10.602;2023-12-29T06:38:08;9.10;68.80
975;DHT22;6115;49.296;10.602;2023-12-29T06:43:08;9.10;69.30
975;DHT22;6115;49.296;10.602;2023-12-29T06:48:09;9.10;70.10
975;DHT22;6115;49.296;10.602;2023-12-29T06:53:09;9.10;70.60
975;DHT22;6115;49.296;10.602;2023-12-29T06:58:10;9.10;71.10
975;DHT22;6115;49.296;10.602;2023-12-29T07:03:14;9.00;71.60
975;DHT22;6115;49.296;10.602;2023-12-29T07:08:15;9.00;72.20
975;DHT22;6115;49.296;10.602;2023-12-29T07:13:19;8.90;72.60
975;DHT22;6115;49.296;10.602;2023-12-29T07:18:19;8.90;72.90
975;DHT22;6115;49.296;10.602;2023-12-29T07:23:20;9.00;72.90
975;DHT22;6115;49.296;10.602;2023-12-29T07:28:20;9.00;72.80
975;DHT22;6115;49.296;10.602;2023-12-29T07:33:21;9.00;73.20
975;DHT22;6115;49.296;10.602;2023-12-29T07:38:22;8.90;73.70
975;DHT22;6115;49.296;10.602;2023-12-29T07:43:22;9.00;73.70
975;DHT22;6115;49.296;10.602;2023-12-29T07:48:23;9.10;73.60
975;DHT22;6115;49.296;10.602;2023-12-29T07:53:24;9.20;73.00
975;DHT22;6115;49.296;10.602;2023-12-29T07:58:24;9.10;72.50
975;DHT22;6115;49.296;10.602;2023-12-29T08:03:25;9.20;72.00
975;DHT22;6115;49.296;10.602;2023-12-29T08:08:25;9.20;71.60
975;DHT22;6115;49.296;10.602;2023-12-29T08:13:26;9.20;71.00
975;DHT22;6115;49.296;10.602;2023-12-29T08:18:26;9.20;70.60
975;DHT22;6115;49.296;10.602;2023-12-29T08:23:28;9.30;70.50
975;DHT22;6115;49.296;10.602;2023-12-29T08:28:29;9.40;70.20
975;DHT22;6115;49.296;10.602;2023-12-29T08:33:29;9.50;69.70
975;DHT22;6115;49.296;10.602;2023-12-29T08:38:30;9.40;69.60
975;DHT22;6115;49.296;10.602;2023-12-29T08:43:34;9.50;69.70
975;DHT22;6115;49.296;10.602;2023-12-29T08:48:36;9.60;69.80
975;DHT22;6115;49.296;10.602;2023-12-29T08:53:37;9.60;69.80
975;DHT22;6115;49.296;10.602;2023-12-29T08:58:37;9.60;69.80
975;DHT22;6115;49.296;10.602;2023-12-29T09:03:38;9.60;69.80
975;DHT22;6115;49.296;10.602;2023-12-29T09:08:39;9.70;69.60
975;DHT22;6115;49.296;10.602;2023-12-29T09:13:39;9.80;68.60
975;DHT22;6115;49.296;10.602;2023-12-29T09:18:40;9.70;68.60
975;DHT22;6115;49.296;10.602;2023-12-29T09:23:41;9.70;68.80
975;DHT22;6115;49.296;10.602;2023-12-29T09:28:42;9.60;69.80
975;DHT22;6115;49.296;10.602;2023-12-29T09:33:45;9.50;69.70
975;DHT22;6115;49.296;10.602;2023-12-29T09:38:46;9.50;70.70
975;DHT22;6115;49.296;10.602;2023-12-29T09:43:49;9.40;72.30
975;DHT22;6115;49.296;10.602;2023-12-29T09:48:52;9.30;74.30
975;DHT22;6115;49.296;10.602;2023-12-29T09:53:54;9.30;74.40
975;DHT22;6115;49.296;10.602;2023-12-29T09:58:56;9.20;75.30
975;DHT22;6115;49.296;10.602;2023-12-29T10:03:57;9.20;77.00
975;DHT22;6115;49.296;10.602;2023-12-29T10:08:58;9.30;78.70
975;DHT22;6115;49.296;10.602;2023-12-29T10:14:05;9.30;78.70
975;DHT22;6115;49.296;10.602;2023-12-29T10:24:29;9.50;77.90
975;DHT22;6115;49.296;10.602;2023-12-29T10:29:31;9.40;77.50
975;DHT22;6115;49.296;10.602;2023-12-29T10:34:32;9.60;77.40
975;DHT22;6115;49.296;10.602;2023-12-29T10:39:33;9.50;76.20
975;DHT22;6115;49.296;10.602;2023-12-29T10:44:34;9.50;76.10
975;DHT22;6115;49.296;10.602;2023-12-29T10:49:35;9.60;76.40
975;DHT22;6115;49.296;10.602;2023-12-29T10:54:36;9.60;76.60
975;DHT22;6115;49.296;10.602;2023-12-29T10:59:36;9.70;76.30
975;DHT22;6115;49.296;10.602;2023-12-29T11:04:37;10.00;74.80
975;DHT22;6115;49.296;10.602;2023-12-29T11:09:38;10.50;74.40
975;DHT22;6115;49.296;10.602;2023-12-29T11:14:39;10.90;71.20
975;DHT22;6115;49.296;10.602;2023-12-29T11:19:45;11.00;69.70
975;DHT22;6115;49.296;10.602;2023-12-29T11:24:47;11.00;68.70
975;DHT22;6115;49.296;10.602;2023-12-29T11:29:48;10.90;68.20
975;DHT22;6115;49.296;10.602;2023-12-29T11:35:10;10.90;66.70
975;DHT22;6115;49.296;10.602;2023-12-29T11:40:20;10.70;65.30
975;DHT22;6115;49.296;10.602;2023-12-29T11:50:31;10.40;64.30
975;DHT22;6115;49.296;10.602;2023-12-29T11:55:34;10.30;64.40
975;DHT22;6115;49.296;10.602;2023-12-29T12:00:46;10.30;64.40
975;DHT22;6115;49.296;10.602;2023-12-29T12:05:48;10.90;65.10
975;DHT22;6115;49.296;10.602;2023-12-29T12:10:48;11.50;61.00
975;DHT22;6115;49.296;10.602;2023-12-29T12:15:49;11.70;60.80
975;DHT22;6115;49.296;10.602;2023-12-29T12:20:50;11.90;59.90
975;DHT22;6115;49.296;10.602;2023-12-29T12:25:57;11.70;58.20
975;DHT22;6115;49.296;10.602;2023-12-29T12:31:06;11.40;58.60
975;DHT22;6115;49.296;10.602;2023-12-29T12:36:07;11.60;58.30
975;DHT22;6115;49.296;10.602;2023-12-29T12:41:10;11.80;57.60
975;DHT22;6115;49.296;10.602;2023-12-29T12:46:12;11.80;56.60
975;DHT22;6115;49.296;10.602;2023-12-29T12:51:14;11.40;56.10
975;DHT22;6115;49.296;10.602;2023-12-29T12:56:15;11.40;57.40
975;DHT22;6115;49.296;10.602;2023-12-29T13:01:17;11.00;57.40
975;DHT22;6115;49.296;10.602;2023-12-29T13:06:18;10.80;57.30
975;DHT22;6115;49.296;10.602;2023-12-29T13:11:19;10.70;57.40
975;DHT22;6115;49.296;10.602;2023-12-29T13:16:35;10.70;57.60
975;DHT22;6115;49.296;10.602;2023-12-29T13:21:36;10.90;57.30
975;DHT22;6115;49.296;10.602;2023-12-29T13:26:37;11.00;57.10
975;DHT22;6115;49.296;10.602;2023-12-29T13:31:38;11.20;56.40
975;DHT22;6115;49.296;10.602;2023-12-29T13:36:51;11.20;55.90
975;DHT22;6115;49.296;10.602;2023-12-29T13:41:53;11.00;55.50
975;DHT22;6115;49.296;10.602;2023-12-29T13:46:54;11.00;54.50
975;DHT22;6115;49.296;10.602;2023-12-29T13:51:59;11.00;53.90
975;DHT22;6115;49.296;10.602;2023-12-29T13:57:00;11.00;53.70
975;DHT22;6115;49.296;10.602;2023-12-29T14:02:28;11.00;53.60
975;DHT22;6115;49.296;10.602;2023-12-29T14:07:33;11.00;53.40
975;DHT22;6115;49.296;10.602;2023-12-29T14:12:34;11.10;53.80
975;DHT22;6115;49.296;10.602;2023-12-29T14:17:35;11.00;53.40
975;DHT22;6115;49.296;10.602;2023-12-29T14:22:36;11.00;54.00
975;DHT22;6115;49.296;10.602;2023-12-29T14:27:37;10.90;54.70
975;DHT22;6115;49.296;10.602;2023-12-29T14:32:39;10.60;55.40
975;DHT22;6115;49.296;10.602;2023-12-29T14:37:40;10.50;56.70
975;DHT22;6115;49.296;10.602;2023-12-29T14:42:40;10.40;57.40
975;DHT22;6115;49.296;10.602;2023-12-29T14:47:41;10.30;57.60
975;DHT22;6115;49.296;10.602;2023-12-29T14:52:42;10.20;58.00
975;DHT22;6115;49.296;10.602;2023-12-29T14:57:43;10.20;57.70
975;DHT22;6115;49.296;10.602;2023-12-29T15:02:44;10.20;57.40
975;DHT22;6115;49.296;10.602;2023-12-29T15:07:45;10.20;56.50
975;DHT22;6115;49.296;10.602;2023-12-29T15:12:46;10.10;56.20
975;DHT22;6115;49.296;10.602;2023-12-29T15:17:46;10.10;56.00
975;DHT22;6115;49.296;10.602;2023-12-29T15:22:48;10.10;56.00
975;DHT22;6115;49.296;10.602;2023-12-29T15:27:49;10.00;56.00
975;DHT22;6115;49.296;10.602;2023-12-29T15:32:49;10.00;56.10
975;DHT22;6115;49.296;10.602;2023-12-29T15:37:50;10.00;56.40
975;DHT22;6115;49.296;10.602;2023-12-29T15:42:50;9.80;57.80
975;DHT22;6115;49.296;10.602;2023-12-29T15:47:51;9.70;57.90
975;DHT22;6115;49.296;10.602;2023-12-29T15:52:52;9.70;58.00
975;DHT22;6115;49.296;10.602;2023-12-29T15:57:52;9.60;58.40
975;DHT22;6115;49.296;10.602;2023-12-29T16:02:53;9.60;58.90
975;DHT22;6115;49.296;10.602;2023-12-29T16:07:54;9.60;59.30
975;DHT22;6115;49.296;10.602;2023-12-29T16:12:54;9.50;59.80
975;DHT22;6115;49.296;10.602;2023-12-29T16:17:55;9.50;59.80
975;DHT22;6115;49.296;10.602;2023-12-29T16:22:56;9.40;59.70
975;DHT22;6115;49.296;10.602;2023-12-29T16:27:56;9.30;60.30
975;DHT22;6115;49.296;10.602;2023-12-29T16:32:57;9.30;60.60
975;DHT22;6115;49.296;10.602;2023-12-29T16:37:58;9.20;60.70
975;DHT22;6115;49.296;10.602;2023-12-29T16:42:59;9.10;61.40
975;DHT22;6115;49.296;10.602;2023-12-29T16:48:00;8.90;62.10
975;DHT22;6115;49.296;10.602;2023-12-29T16:53:03;8.90;62.50
975;DHT22;6115;49.296;10.602;2023-12-29T16:58:03;8.80;62.50
975;DHT22;6115;49.296;10.602;2023-12-29T17:03:04;8.90;62.50
975;DHT22;6115;49.296;10.602;2023-12-29T17:08:05;8.90;62.00
975;DHT22;6115;49.296;10.602;2023-12-29T17:13:06;8.90;61.50
975;DHT22;6115;49.296;10.602;2023-12-29T17:18:06;8.90;61.40
975;DHT22;6115;49.296;10.602;2023-12-29T17:23:07;8.80;61.30
975;DHT22;6115;49.296;10.602;2023-12-29T17:28:08;8.80;61.20
975;DHT22;6115;49.296;10.602;2023-12-29T17:33:09;8.80;61.30
975;DHT22;6115;49.296;10.602;2023-12-29T17:38:09;8.80;61.50
975;DHT22;6115;49.296;10.602;2023-12-29T17:43:10;8.80;61.50
975;DHT22;6115;49.296;10.602;2023-12-29T17:48:11;8.90;61.40
975;DHT22;6115;49.296;10.602;2023-12-29T17:53:11;8.90;61.50
975;DHT22;6115;49.296;10.602;2023-12-29T17:58:12;8.90;61.60
975;DHT22;6115;49.296;10.602;2023-12-29T18:03:12;8.80;62.30
975;DHT22;6115;49.296;10.602;2023-12-29T18:08:13;8.80;62.80
975;DHT22;6115;49.296;10.602;2023-12-29T18:13:18;8.80;63.20
975;DHT22;6115;49.296;10.602;2023-12-29T18:18:21;8.70;63.50
975;DHT22;6115;49.296;10.602;2023-12-29T18:23:21;8.60;63.70
975;DHT22;6115;49.296;10.602;2023-12-29T18:28:25;8.60;63.20
975;DHT22;6115;49.296;10.602;2023-12-29T18:33:25;8.60;62.50
975;DHT22;6115;49.296;10.602;2023-12-29T18:38:26;8.60;61.60
975;DHT22;6115;49.296;10.602;2023-12-29T18:43:26;8.70;60.30
975;DHT22;6115;49.296;10.602;2023-12-29T18:48:32;8.70;59.10
975;DHT22;6115;49.296;10.602;2023-12-29T18:53:34;8.70;59.10
975;DHT22;6115;49.296;10.602;2023-12-29T18:58:35;8.80;58.00
975;DHT22;6115;49.296;10.602;2023-12-29T19:03:36;8.80;57.50
975;DHT22;6115;49.296;10.602;2023-12-29T19:08:37;8.70;56.90
975;DHT22;6115;49.296;10.602;2023-12-29T19:13:38;8.80;56.60
975;DHT22;6115;49.296;10.602;2023-12-29T19:18:38;8.70;56.30
975;DHT22;6115;49.296;10.602;2023-12-29T19:23:42;8.60;55.80
975;DHT22;6115;49.296;10.602;2023-12-29T19:28:43;8.70;55.50
975;DHT22;6115;49.296;10.602;2023-12-29T19:33:44;8.60;55.00
975;DHT22;6115;49.296;10.602;2023-12-29T19:38:45;8.70;54.80
975;DHT22;6115;49.296;10.602;2023-12-29T19:43:49;8.60;54.70
975;DHT22;6115;49.296;10.602;2023-12-29T19:48:50;8.60;54.70
975;DHT22;6115;49.296;10.602;2023-12-29T19:53:53;8.40;54.60
975;DHT22;6115;49.296;10.602;2023-12-29T19:58:54;8.40;55.00
975;DHT22;6115;49.296;10.602;2023-12-29T20:03:56;8.40;55.30
975;DHT22;6115;49.296;10.602;2023-12-29T20:08:56;8.30;55.50
975;DHT22;6115;49.296;10.602;2023-12-29T20:13:57;8.30;55.70
975;DHT22;6115;49.296;10.602;2023-12-29T20:18:57;8.20;56.10
975;DHT22;6115;49.296;10.602;2023-12-29T20:23:59;8.20;56.30
975;DHT22;6115;49.296;10.602;2023-12-29T20:28:59;8.00;56.60
975;DHT22;6115;49.296;10.602;2023-12-29T20:34:00;8.10;57.00
975;DHT22;6115;49.296;10.602;2023-12-29T20:39:01;8.10;57.00
975;DHT22;6115;49.296;10.602;2023-12-29T20:44:02;8.20;57.00
975;DHT22;6115;49.296;10.602;2023-12-29T20:49:03;8.40;56.80
975;DHT22;6115;49.296;10.602;2023-12-29T20:54:04;8.40;56.60
975;DHT22;6115;49.296;10.602;2023-12-29T20:59:04;8.40;56.40
975;DHT22;6115;49.296;10.602;2023-12-29T21:04:05;8.50;56.30
975;DHT22;6115;49.296;10.602;2023-12-29T21:09:10;8.40;56.40
975;DHT22;6115;49.296;10.602;2023-12-29T21:14:12;8.40;56.60
975;DHT22;6115;49.296;10.602;2023-12-29T21:19:13;8.40;56.90
975;DHT22;6115;49.296;10.602;2023-12-29T21:24:14;8.30;57.60
975;DHT22;6115;49.296;10.602;2023-12-29T21:29:14;8.30;57.10
975;DHT22;6115;49.296;10.602;2023-12-29T21:34:15;8.40;57.20
975;DHT22;6115;49.296;10.602;2023-12-29T21:39:20;8.40;57.10
975;DHT22;6115;49.296;10.602;2023-12-29T21:44:21;8.50;57.20
975;DHT22;6115;49.296;10.602;2023-12-29T21:49:21;8.50;57.20
975;DHT22;6115;49.296;10.602;2023-12-29T21:54:22;8.50;57.10
975;DHT22;6115;49.296;10.602;2023-12-29T21:59:23;8.50;57.00
975;DHT22;6115;49.296;10.602;2023-12-29T22:04:23;8.50;56.90
975;DHT22;6115;49.296;10.602;2023-12-29T22:09:25;8.50;57.10
975;DHT22;6115;49.296;10.602;2023-12-29T22:14:26;8.40;57.50
975;DHT22;6115;49.296;10.602;2023-12-29T22:19:27;8.30;57.90
975;DHT22;6115;49.296;10.602;2023-12-29T22:24:28;8.20;58.00
975;DHT22;6115;49.296;10.602;2023-12-29T22:29:28;8.20;58.50
975;DHT22;6115;49.296;10.602;2023-12-29T22:34:29;8.20;58.70
975;DHT22;6115;49.296;10.602;2023-12-29T22:39:29;8.20;58.70
975;DHT22;6115;49.296;10.602;2023-12-29T22:44:30;8.30;58.80
975;DHT22;6115;49.296;10.602;2023-12-29T22:49:30;8.30;58.80
975;DHT22;6115;49.296;10.602;2023-12-29T22:54:31;8.30;58.90
975;DHT22;6115;49.296;10.602;2023-12-29T22:59:33;8.20;58.70
975;DHT22;6115;49.296;10.602;2023-12-29T23:04:35;8.20;58.70
975;DHT22;6115;49.296;10.602;2023-12-29T23:09:37;8.30;58.80
975;DHT22;6115;49.296;10.602;2023-12-29T23:14:39;8.40;58.40
975;DHT22;6115;49.296;10.602;2023-12-29T23:19:40;8.40;57.80
975;DHT22;6115;49.296;10.602;2023-12-29T23:24:42;8.50;57.70
975;DHT22;6115;49.296;10.602;2023-12-29T23:29:42;8.50;57.70
975;DHT22;6115;49.296;10.602;2023-12-29T23:34:43;8.60;57.40
975;DHT22;6115;49.296;10.602;2023-12-29T23:39:44;8.50;57.40
975;DHT22;6115;49.296;10.602;2023-12-29T23:44:45;8.40;57.70
975;DHT22;6115;49.296;10.602;2023-12-29T23:49:45;8.20;58.20
975;DHT22;6115;49.296;10.602;2023-12-29T23:54:48;8.10;58.70
975;DHT22;6115;49.296;10.602;2023-12-29T23:59:49;7.80;59.50
